createdAt,value
2023-05-04T00:02:16.607Z,1.80
2023-05-04T00:07:21.589Z,1.65
2023-05-04T00:12:25.044Z,1.83
2023-05-04T00:17:28.469Z,1.75
2023-05-04T00:22:33.272Z,1.90
2023-05-04T00:27:36.658Z,1.58
2023-05-04T00:32:40.079Z,1.83
2023-05-04T00:37:46.461Z,1.83
2023-05-04T00:42:50.001Z,1.60
2023-05-04T00:47:53.521Z,1.80
2023-05-04T00:53:02.584Z,1.70
2023-05-04T00:58:06.773Z,1.42
2023-05-04T01:03:11.542Z,1.65
2023-05-04T01:08:22.962Z,1.65
2023-05-04T01:13:27.402Z,1.48
2023-05-04T01:18:30.905Z,1.50
2023-05-04T01:23:35.746Z,1.50
2023-05-04T01:28:47.537Z,1.35
2023-05-04T01:33:54.443Z,1.48
2023-05-04T01:39:00.661Z,1.50
2023-05-04T01:44:04.223Z,1.60
2023-05-04T01:49:08.042Z,1.33
2023-05-04T01:54:12.756Z,1.40
2023-05-04T01:59:16.178Z,1.40
2023-05-04T02:04:20.326Z,1.30
2023-05-04T02:09:25.146Z,1.58
2023-05-04T02:14:28.569Z,1.58
2023-05-04T02:19:31.974Z,1.23
2023-05-04T02:24:36.749Z,1.30
2023-05-04T02:29:40.261Z,1.27
2023-05-04T02:34:44.401Z,1.30
2023-05-04T02:39:49.191Z,1.25
2023-05-04T02:44:52.739Z,1.40
2023-05-04T02:49:56.179Z,1.30
2023-05-04T02:55:02.132Z,1.25
2023-05-04T03:00:07.790Z,1.30
2023-05-04T03:05:11.542Z,1.30
2023-05-04T03:10:16.447Z,1.38
2023-05-04T03:15:20.160Z,1.20
2023-05-04T03:20:23.710Z,1.30
2023-05-04T03:25:28.710Z,1.10
2023-05-04T03:30:32.508Z,1.20
2023-05-04T03:35:38.943Z,1.35
2023-05-04T03:40:44.458Z,1.10
2023-05-04T03:45:49.617Z,1.13
2023-05-04T03:50:54.386Z,1.10
2023-05-04T03:55:59.318Z,1.20
2023-05-04T04:01:04.263Z,1.10
2023-05-04T04:06:09.790Z,1.17
2023-05-04T04:11:15.556Z,1.10
2023-05-04T04:16:20.522Z,1.10
2023-05-04T04:21:23.994Z,1.00
2023-05-04T04:26:28.774Z,1.40
2023-05-04T04:31:32.383Z,1.05
2023-05-04T04:36:35.940Z,1.10
2023-05-04T04:41:40.903Z,1.10
2023-05-04T04:46:44.654Z,1.10
2023-05-04T04:51:48.920Z,1.23
2023-05-04T04:56:53.672Z,1.10
2023-05-04T05:01:57.928Z,0.93
2023-05-04T05:07:01.343Z,1.00
2023-05-04T05:12:07.063Z,1.30
2023-05-04T05:17:10.885Z,1.00
2023-05-04T05:22:14.372Z,1.20
2023-05-04T05:27:19.182Z,1.00
2023-05-04T05:32:22.572Z,1.20
2023-05-04T05:37:26.132Z,1.10
2023-05-04T05:42:32.245Z,0.80
2023-05-04T05:47:36.854Z,1.10
2023-05-04T05:52:40.310Z,0.88
2023-05-04T05:57:45.086Z,0.90
2023-05-04T06:02:48.718Z,1.00
2023-05-04T06:07:52.203Z,1.10
2023-05-04T06:12:56.982Z,1.20
2023-05-04T06:18:00.353Z,1.08
2023-05-04T06:23:03.882Z,1.08
2023-05-04T06:28:08.855Z,1.30
2023-05-04T06:33:12.323Z,1.90
2023-05-04T06:38:15.759Z,2.08
2023-05-04T06:43:20.493Z,2.10
2023-05-04T06:48:23.880Z,1.70
2023-05-04T06:53:27.252Z,1.90
2023-05-04T06:58:32.037Z,1.90
2023-05-04T07:03:35.526Z,1.73
2023-05-04T07:08:42.138Z,1.65
2023-05-04T07:13:46.994Z,1.83
2023-05-04T07:18:50.439Z,2.28
2023-05-04T07:23:54.983Z,2.17
2023-05-04T07:28:59.808Z,2.13
2023-05-04T07:34:04.028Z,1.80
2023-05-04T07:39:07.644Z,2.00
2023-05-04T07:44:12.524Z,1.67
2023-05-04T07:49:15.874Z,1.70
2023-05-04T07:54:21.322Z,1.80
2023-05-04T07:59:27.373Z,1.70
2023-05-04T08:04:30.746Z,1.70
2023-05-04T08:09:34.172Z,1.60
2023-05-04T08:14:39.723Z,1.58
2023-05-04T08:19:43.087Z,1.70
2023-05-04T08:24:47.996Z,2.10
2023-05-04T08:29:52.885Z,2.03
2023-05-04T08:34:56.255Z,2.38
2023-05-04T08:39:59.847Z,2.20
2023-05-04T08:45:05.307Z,2.80
2023-05-04T08:50:10.317Z,2.50
2023-05-04T08:55:16.249Z,2.30
2023-05-04T09:00:23.153Z,2.30
2023-05-04T09:05:27.140Z,2.40
2023-05-04T09:10:31.515Z,2.10
2023-05-04T09:15:36.350Z,2.65
2023-05-04T09:20:47.979Z,2.50
2023-05-04T09:25:53.077Z,2.35
2023-05-04T09:31:02.654Z,2.80
2023-05-04T09:36:17.377Z,3.15
2023-05-04T09:41:20.888Z,2.80
2023-05-04T09:46:25.923Z,2.75
2023-05-04T09:51:29.439Z,2.80
2023-05-04T09:56:43.022Z,4.72
2023-05-04T10:01:48.191Z,4.95
2023-05-04T10:06:52.001Z,4.05
2023-05-04T10:11:56.308Z,3.92
2023-05-04T10:17:16.677Z,3.42
2023-05-04T10:22:39.858Z,2.90
2023-05-04T10:28:02.292Z,2.40
2023-05-04T10:33:07.532Z,2.45
2023-05-04T10:38:12.603Z,2.53
2023-05-04T10:43:24.866Z,2.40
2023-05-04T10:48:37.994Z,2.10
2023-05-04T10:53:42.243Z,2.25
2023-05-04T10:58:45.883Z,2.08
2023-05-04T11:03:51.376Z,1.88
2023-05-04T11:09:06.282Z,2.00
2023-05-04T11:14:10.667Z,1.80
2023-05-04T11:19:15.471Z,2.03
2023-05-04T11:24:18.963Z,1.92
2023-05-04T11:29:22.394Z,1.80
2023-05-04T11:34:27.717Z,1.80
2023-05-04T11:39:34.053Z,1.60
2023-05-04T11:44:38.563Z,1.83
2023-05-04T11:49:43.912Z,1.60
2023-05-04T11:54:57.819Z,1.77
2023-05-04T12:00:01.409Z,1.90
2023-05-04T12:05:14.977Z,1.60
2023-05-04T12:10:28.036Z,1.67
2023-05-04T12:15:35.219Z,1.70
2023-05-04T12:20:39.990Z,1.52
2023-05-04T12:25:54.847Z,1.58
2023-05-04T12:31:01.390Z,1.40
2023-05-04T12:36:08.226Z,1.40
2023-05-04T12:41:11.986Z,1.50
2023-05-04T12:46:17.444Z,1.35
2023-05-04T12:51:22.182Z,1.33
2023-05-04T12:56:25.847Z,1.40
2023-05-04T13:01:29.221Z,1.58
2023-05-04T13:06:33.983Z,1.40
2023-05-04T13:11:37.330Z,1.25
2023-05-04T13:16:40.665Z,1.40
2023-05-04T13:21:45.385Z,1.38
2023-05-04T13:26:48.768Z,1.40
2023-05-04T13:31:52.435Z,1.40
2023-05-04T13:36:57.173Z,1.50
2023-05-04T13:42:00.507Z,1.40
2023-05-04T13:47:05.042Z,1.23
2023-05-04T13:52:10.171Z,1.40
2023-05-04T13:57:13.745Z,1.52
2023-05-04T14:02:17.171Z,1.30
2023-05-04T14:07:21.898Z,1.40
2023-05-04T14:12:25.242Z,1.40
2023-05-04T14:17:28.702Z,1.60
2023-05-04T14:22:35.098Z,1.33
2023-05-04T14:27:40.918Z,1.30
2023-05-04T14:32:44.328Z,1.40
2023-05-04T14:37:49.520Z,1.33
2023-05-04T14:42:52.923Z,1.40
2023-05-04T14:47:56.310Z,1.45
2023-05-04T14:53:01.073Z,1.40
2023-05-04T14:58:04.386Z,1.38
2023-05-04T15:03:08.227Z,1.30
2023-05-04T15:08:13.063Z,1.30
2023-05-04T15:13:17.834Z,1.42
2023-05-04T15:18:23.893Z,1.38
2023-05-04T15:23:28.762Z,1.65
2023-05-04T15:28:32.127Z,1.20
2023-05-04T15:33:35.477Z,1.30
2023-05-04T15:38:40.233Z,1.35
2023-05-04T15:43:43.579Z,1.48
2023-05-04T15:48:46.976Z,1.50
2023-05-04T15:53:52.595Z,1.50
2023-05-04T15:58:55.992Z,1.42
2023-05-04T16:04:00.498Z,1.20
2023-05-04T16:09:06.781Z,1.30
2023-05-04T16:14:10.844Z,1.48
2023-05-04T16:19:14.228Z,1.58
2023-05-04T16:24:19.022Z,1.50
2023-05-04T16:29:23.142Z,1.40
2023-05-04T16:34:26.526Z,1.48
2023-05-04T16:39:31.821Z,1.67
2023-05-04T16:44:35.410Z,1.60
2023-05-04T16:49:38.804Z,1.90
2023-05-04T16:54:43.581Z,1.80
2023-05-04T16:59:46.937Z,2.00
2023-05-04T17:04:50.537Z,2.20
2023-05-04T17:09:55.395Z,2.00
2023-05-04T17:14:58.892Z,2.10
2023-05-04T17:20:02.460Z,2.28
2023-05-04T17:25:09.143Z,2.25
2023-05-04T17:30:14.553Z,2.30
2023-05-04T17:35:25.336Z,2.30
2023-05-04T17:40:30.940Z,2.30
2023-05-04T17:45:34.511Z,2.33
2023-05-04T17:50:38.774Z,2.40
2023-05-04T17:55:43.817Z,2.80
2023-05-04T18:00:47.272Z,2.60
2023-05-04T18:05:50.656Z,2.40
2023-05-04T18:10:55.406Z,2.47
2023-05-04T18:15:59.019Z,2.45
2023-05-04T18:21:02.410Z,2.50
2023-05-04T18:26:07.249Z,2.47
2023-05-04T18:31:10.640Z,2.40
2023-05-04T18:36:14.065Z,2.47
2023-05-04T18:41:18.894Z,2.40
2023-05-04T18:46:22.463Z,2.40
2023-05-04T18:51:27.826Z,2.20
2023-05-04T18:56:35.233Z,2.38
2023-05-04T19:06:42.474Z,2.30
2023-05-04T19:11:47.616Z,2.25
2023-05-04T19:16:51.122Z,2.38
2023-05-04T19:21:55.422Z,2.20
2023-05-04T19:27:00.598Z,2.35
2023-05-04T19:32:15.786Z,2.10
2023-05-04T19:37:23.614Z,2.08
2023-05-04T19:42:29.339Z,2.10
2023-05-04T19:47:33.192Z,2.25
2023-05-04T19:52:37.323Z,2.17
2023-05-04T19:57:42.525Z,2.40
2023-05-04T20:02:46.607Z,2.38
2023-05-04T20:07:50.161Z,2.30
2023-05-04T20:12:54.994Z,2.47
2023-05-04T20:17:58.827Z,2.17
2023-05-04T20:23:02.267Z,2.70
2023-05-04T20:28:07.140Z,2.33
2023-05-04T20:33:10.531Z,2.10
2023-05-04T20:38:15.410Z,2.30
2023-05-04T20:43:20.515Z,2.13
2023-05-04T20:48:23.921Z,2.20
2023-05-04T20:53:29.915Z,2.15
2023-05-04T20:58:34.845Z,2.30
2023-05-04T21:03:38.343Z,2.00
2023-05-04T21:08:42.199Z,2.10
2023-05-04T21:13:46.987Z,2.10
2023-05-04T21:18:50.410Z,2.25
2023-05-04T21:23:53.877Z,1.95
2023-05-04T21:28:58.783Z,2.20
2023-05-04T21:34:02.396Z,2.10
2023-05-04T21:39:05.987Z,1.98
2023-05-04T21:44:10.777Z,2.00
2023-05-04T21:49:14.168Z,2.22
2023-05-04T21:54:17.524Z,1.80
2023-05-04T21:59:22.239Z,2.10
2023-05-04T22:04:25.679Z,1.90
2023-05-04T22:09:29.692Z,2.00
2023-05-04T22:14:34.654Z,1.98
2023-05-04T22:19:38.196Z,1.90
2023-05-04T22:24:41.750Z,1.90
2023-05-04T22:29:46.544Z,1.80
2023-05-04T22:34:49.923Z,1.83
2023-05-04T22:39:53.293Z,1.80
2023-05-04T22:44:58.058Z,1.73
2023-05-04T22:50:01.413Z,1.65
2023-05-04T22:55:06.736Z,1.83
2023-05-04T23:00:14.152Z,1.85
2023-05-04T23:05:18.032Z,1.70
2023-05-04T23:10:22.038Z,1.67
2023-05-04T23:15:27.624Z,1.75
2023-05-04T23:20:31.129Z,1.85
2023-05-04T23:25:34.752Z,1.80
2023-05-04T23:30:39.473Z,1.60
2023-05-04T23:35:42.826Z,1.60
2023-05-04T23:40:46.141Z,1.65
2023-05-04T23:45:51.403Z,1.70
2023-05-04T23:50:57.449Z,1.70
2023-05-04T23:56:04.129Z,1.73
